Other Surface Observations
Issued by NWS Great Falls, MT

Home | Current Version | Previous Version | Text Only | Print | Product List | Glossary On
Versions: 1 2 3 4 5 6 7 8 9 10 11 12 13 14 15 16 17 18 19 20 21 22 23 24 25 26 27 28 29 30 31 32 33 34 35 36 37 38 39 40 41 42 43 44 45 46 47 48 49 50
096
SXUS55 KTFX 221921
OSOTFX

AREA AWOS OBSERVATIONS
NATIONAL WEATHER SERVICE GREAT FALLS MT
0121 PM MDT Sun Apr 22 2018

METAR KCII 221915Z AUTO VRB05KT 10SM 11/M10 A3015 RMK A01
METAR K6S0 221915Z AUTO 13007KT 10SM CLR 14/M04 A3010 RMK A01
METAR K6S8 221920Z AUTO 10009KT 10SM 17/M04 A3009 RMK A01
METAR K7S6 221915Z AUTO 32007KT 10SM 12/M04 A3010 RMK A01
METAR K7S0 221920Z AUTO 00000G10KT 10SM 11/M08 A3020 RMK A01



USA.gov is the U.S. government's official web portal to all federal, state and local government web resources and services.